createdAt,value
2022-08-23T00:02:22.837Z,97443.75
2022-08-23T00:04:53.244Z,97443.78
2022-08-23T00:07:38.261Z,97440.31
2022-08-23T00:10:06.081Z,97435.13
2022-08-23T00:12:33.112Z,97447.16
2022-08-23T00:14:59.688Z,97445.44
2022-08-23T00:17:34.299Z,97451.50
2022-08-23T00:20:11.590Z,97442.03
2022-08-23T00:22:38.285Z,97427.38
2022-08-23T00:25:09.254Z,97434.28
2022-08-23T00:27:35.900Z,97426.53
2022-08-23T00:30:02.850Z,97429.16
2022-08-23T00:32:31.868Z,97432.59
2022-08-23T00:34:59.565Z,97438.59
2022-08-23T00:37:26.384Z,97442.88
2022-08-23T00:39:53.078Z,97410.09
2022-08-23T00:42:56.194Z,97434.28
2022-08-23T00:46:16.993Z,97436.88
2022-08-23T00:48:43.560Z,97423.06
2022-08-23T00:51:23.716Z,97438.63
2022-08-23T00:53:52.523Z,97417.06
2022-08-23T00:56:20.410Z,97418.75
2022-08-23T00:58:47.063Z,97429.16
2022-08-23T01:01:14.425Z,97437.72
2022-08-23T01:03:43.205Z,97432.59
2022-08-23T01:06:19.622Z,97437.72
2022-08-23T01:08:51.249Z,97442.88
2022-08-23T01:11:23.824Z,97445.44
2022-08-23T01:13:57.369Z,97441.94
2022-08-23T01:16:36.896Z,97435.03
2022-08-23T01:19:03.953Z,97449.72
2022-08-23T01:21:33.670Z,97451.44
2022-08-23T01:24:03.415Z,97443.75
2022-08-23T01:26:34.977Z,97424.72
2022-08-23T01:29:03.047Z,97448.00
2022-08-23T01:31:29.709Z,97436.84
2022-08-23T01:34:02.289Z,97436.81
2022-08-23T01:36:29.092Z,97444.56
2022-08-23T01:38:55.867Z,97445.44
2022-08-23T01:41:22.460Z,97339.97
2022-08-23T01:43:49.145Z,97453.16
2022-08-23T01:46:18.106Z,97444.56
2022-08-23T01:48:46.228Z,97440.28
2022-08-23T01:51:14.385Z,97448.00
2022-08-23T02:42:53.881Z,97444.53
2022-08-23T02:45:21.390Z,97444.53
2022-08-23T02:47:48.064Z,97446.25
2022-08-23T02:50:14.618Z,97452.22
2022-08-23T02:52:41.178Z,97449.66
2022-08-23T02:55:08.235Z,97452.22
2022-08-23T02:57:34.790Z,97453.09
2022-08-23T03:00:01.378Z,97440.19
2022-08-23T03:02:29.984Z,97459.13
2022-08-23T03:04:56.594Z,97460.81
2022-08-23T03:07:23.160Z,97462.53
2022-08-23T03:09:49.792Z,97454.78
2022-08-23T03:12:16.392Z,97461.69
2022-08-23T03:14:42.951Z,97467.69
2022-08-23T03:17:09.481Z,97470.25
2022-08-23T03:19:36.060Z,97471.13
2022-08-23T03:24:36.684Z,97473.72
2022-08-23T03:27:04.014Z,97476.28
2022-08-23T03:29:31.867Z,97476.28
2022-08-23T03:31:59.200Z,97480.53
2022-08-23T03:34:25.784Z,97469.41
2022-08-23T03:36:52.432Z,97475.41
2022-08-23T03:39:18.973Z,97477.97
2022-08-23T03:41:45.533Z,97473.63
2022-08-23T03:44:12.056Z,97480.56
2022-08-23T03:46:38.619Z,97486.56
2022-08-23T03:49:05.227Z,97481.44
2022-08-23T03:51:31.832Z,97476.25
2022-08-23T03:53:58.444Z,97491.72
2022-08-23T03:56:28.433Z,97481.44
2022-08-23T03:58:55.209Z,97490.84
2022-08-23T04:01:26.527Z,97479.72
2022-08-23T04:03:55.228Z,97486.56
2022-08-23T04:06:21.765Z,97498.56
2022-08-23T04:08:48.361Z,97495.16
2022-08-23T04:11:15.332Z,97499.44
2022-08-23T04:13:42.345Z,97494.25
2022-08-23T04:16:09.176Z,97500.28
2022-08-23T04:18:36.710Z,97490.84
2022-08-23T04:21:07.341Z,97501.13
2022-08-23T04:23:33.906Z,97503.69
2022-08-23T04:26:00.437Z,97516.56
2022-08-23T04:28:28.440Z,97509.72
2022-08-23T04:30:55.323Z,97513.16
2022-08-23T04:33:22.368Z,97508.00
2022-08-23T04:35:48.893Z,97506.28
2022-08-23T04:38:24.304Z,97506.28
2022-08-23T04:41:11.324Z,97512.28
2022-08-23T04:43:38.531Z,97509.72
2022-08-23T04:46:05.658Z,97511.41
2022-08-23T04:48:33.308Z,97509.66
2022-08-23T04:50:59.910Z,97507.94
2022-08-23T04:53:26.556Z,97510.50
2022-08-23T04:55:53.109Z,97511.31
2022-08-23T04:58:19.637Z,97509.56
2022-08-23T05:00:51.502Z,97512.09
2022-08-23T05:03:18.454Z,97514.63
2022-08-23T05:05:45.005Z,97519.72
2022-08-23T05:08:11.597Z,97527.41
2022-08-23T05:10:38.235Z,97523.94
2022-08-23T05:13:04.793Z,97523.06
2022-08-23T05:15:31.364Z,97522.16
2022-08-23T05:17:57.993Z,97518.69
2022-08-23T05:20:24.575Z,97523.78
2022-08-23T05:22:51.365Z,97515.97
2022-08-23T05:25:18.008Z,97529.81
2022-08-23T05:27:44.517Z,97541.78
2022-08-23T05:30:15.277Z,97543.50
2022-08-23T05:32:42.176Z,97533.22
2022-08-23T05:35:09.081Z,97541.78
2022-08-23T05:37:35.609Z,97544.34
2022-08-23T05:40:02.427Z,97530.56
2022-08-23T05:42:29.024Z,97544.38
2022-08-23T05:44:55.673Z,97545.22
2022-08-23T05:47:24.998Z,97549.53
2022-08-23T05:49:51.809Z,97552.97
2022-08-23T05:52:18.340Z,97558.13
2022-08-23T05:54:45.063Z,97558.97
2022-08-23T05:57:11.636Z,97562.38
2022-08-23T05:59:38.243Z,97560.69
2022-08-23T06:02:04.854Z,97559.81
2022-08-23T06:04:31.433Z,97545.16
2022-08-23T06:06:58.940Z,97559.84
2022-08-23T06:09:25.687Z,97559.84
2022-08-23T06:11:52.705Z,97562.41
2022-08-23T06:14:19.351Z,97562.44
2022-08-23T06:16:53.625Z,97565.88
2022-08-23T06:19:22.835Z,97562.44
2022-08-23T06:21:49.518Z,97562.44
2022-08-23T06:24:16.110Z,97567.56
2022-08-23T06:26:43.495Z,97562.38
2022-08-23T06:29:11.840Z,97563.31
2022-08-23T06:31:47.305Z,97571.91
2022-08-23T06:34:29.533Z,97562.38
2022-08-23T06:36:57.752Z,97581.38
2022-08-23T06:39:26.599Z,97572.81
2022-08-23T06:41:53.270Z,97565.94
2022-08-23T06:44:19.920Z,97562.44
2022-08-23T06:46:48.009Z,97573.69
2022-08-23T06:49:14.643Z,97320.19
2022-08-23T06:51:46.723Z,97579.72
2022-08-23T06:54:14.207Z,97566.81
2022-08-23T06:56:41.097Z,97581.44
2022-08-23T06:59:07.763Z,97578.88
2022-08-23T07:01:45.590Z,97581.47
2022-08-23T07:04:14.153Z,97579.78
2022-08-23T07:06:40.852Z,97587.50
2022-08-23T07:09:07.417Z,97587.53
2022-08-23T07:11:33.965Z,97592.66
2022-08-23T07:14:01.244Z,97591.81
2022-08-23T07:16:57.745Z,97590.13
2022-08-23T07:19:30.058Z,97599.56
2022-08-23T07:21:57.635Z,97598.66
2022-08-23T07:24:27.221Z,97602.19
2022-08-23T07:26:57.341Z,97608.19
2022-08-23T07:29:23.921Z,97605.63
2022-08-23T07:31:53.349Z,97608.22
2022-08-23T07:34:20.918Z,97606.47
2022-08-23T07:36:48.173Z,97596.09
2022-08-23T07:39:15.017Z,97614.22
2022-08-23T07:41:41.951Z,97604.78
2022-08-23T07:44:09.429Z,97600.41
2022-08-23T07:46:37.497Z,97611.63
2022-08-23T07:49:04.305Z,97608.13
2022-08-23T07:51:31.537Z,97618.50
2022-08-23T07:53:58.149Z,97617.66
2022-08-23T07:56:25.034Z,97623.69
2022-08-23T07:58:51.592Z,97615.97
2022-08-23T08:01:20.348Z,97615.97
2022-08-23T08:03:48.533Z,97604.69
2022-08-23T08:06:18.855Z,97624.56
2022-08-23T08:08:45.516Z,97619.41
2022-08-23T08:11:12.744Z,97601.22
2022-08-23T08:13:43.116Z,97620.28
2022-08-23T08:16:09.866Z,97615.13
2022-08-23T08:18:36.995Z,97619.44
2022-08-23T08:21:06.651Z,97631.47
2022-08-23T08:23:34.379Z,97622.88
2022-08-23T08:26:02.430Z,97628.03
2022-08-23T08:28:29.048Z,97626.31
2022-08-23T08:30:55.695Z,97632.28
2022-08-23T08:33:22.244Z,97624.56
2022-08-23T08:36:00.262Z,97629.72
2022-08-23T08:38:30.789Z,97626.31
2022-08-23T08:41:16.075Z,97622.84
2022-08-23T08:43:58.001Z,97625.44
2022-08-23T08:46:39.171Z,97622.78
2022-08-23T08:49:05.949Z,97632.28
2022-08-23T08:51:48.053Z,97629.69
2022-08-23T08:54:16.549Z,97592.47
2022-08-23T08:56:43.153Z,97627.97
2022-08-23T08:59:24.501Z,97632.25
2022-08-23T09:01:51.500Z,97614.16
2022-08-23T09:04:18.199Z,97625.41
2022-08-23T09:06:47.520Z,97627.09
2022-08-23T09:09:48.222Z,97627.09
2022-08-23T09:12:21.097Z,97625.41
2022-08-23T09:15:12.977Z,97623.69
2022-08-23T09:17:59.755Z,97622.81
2022-08-23T09:20:32.964Z,97586.53
2022-08-23T09:23:15.266Z,97626.28
2022-08-23T09:25:41.983Z,97623.69
2022-08-23T09:28:08.680Z,97623.69
2022-08-23T09:30:53.106Z,97622.81
2022-08-23T09:33:21.853Z,97615.13
2022-08-23T09:36:14.963Z,97614.22
2022-08-23T09:39:01.893Z,97615.97
2022-08-23T09:41:41.049Z,97613.38
2022-08-23T09:44:09.589Z,97608.25
2022-08-23T09:46:39.092Z,97606.50
2022-08-23T09:49:34.899Z,97607.38
2022-08-23T09:52:32.245Z,97600.53
2022-08-23T09:55:02.656Z,97609.06
2022-08-23T09:57:30.616Z,97598.81
2022-08-23T10:00:18.467Z,97603.09
2022-08-23T10:02:45.033Z,97561.59
2022-08-23T10:05:29.805Z,97594.50
2022-08-23T10:08:00.632Z,97596.22
2022-08-23T10:10:37.614Z,97597.97
2022-08-23T10:13:04.468Z,97587.66
2022-08-23T10:15:40.340Z,97597.97
2022-08-23T10:18:33.352Z,97578.22
2022-08-23T10:21:21.150Z,97580.78
2022-08-23T10:23:50.355Z,97579.94
2022-08-23T10:26:39.380Z,97535.81
2022-08-23T10:29:35.346Z,97580.78
2022-08-23T10:32:22.044Z,97579.94
2022-08-23T10:34:51.156Z,97577.38
2022-08-23T10:37:39.577Z,97577.38
2022-08-23T10:40:25.939Z,97569.63
2022-08-23T10:42:53.306Z,97575.63
2022-08-23T10:45:22.641Z,97571.38
2022-08-23T10:48:05.553Z,97562.78
2022-08-23T10:50:43.634Z,97562.78
2022-08-23T10:53:22.198Z,97567.91
2022-08-23T10:56:03.304Z,97509.09
2022-08-23T10:58:41.115Z,97557.63
2022-08-23T11:01:08.146Z,97555.06
2022-08-23T11:03:47.725Z,97547.19
2022-08-23T11:06:37.870Z,97552.47
2022-08-23T11:09:04.316Z,97561.06
2022-08-23T11:11:49.261Z,97554.22
2022-08-23T11:14:42.879Z,97543.94
2022-08-23T11:17:12.596Z,97539.66
2022-08-23T11:20:09.880Z,97539.63
2022-08-23T11:22:58.308Z,97538.81
2022-08-23T11:25:24.717Z,97533.63
2022-08-23T11:27:51.337Z,97543.06
2022-08-23T11:30:33.236Z,97537.03
2022-08-23T11:33:10.349Z,97546.50
2022-08-23T11:35:50.068Z,97540.50
2022-08-23T11:38:22.460Z,97540.53
2022-08-23T11:40:52.302Z,97536.22
2022-08-23T11:43:36.676Z,97540.53
2022-08-23T11:46:36.297Z,97539.66
2022-08-23T11:49:30.902Z,97542.22
2022-08-23T11:52:37.057Z,97537.94
2022-08-23T11:55:24.620Z,97541.41
2022-08-23T11:57:57.105Z,97535.38
2022-08-23T12:00:53.178Z,97536.25
2022-08-23T12:03:34.172Z,97537.06
2022-08-23T12:06:03.765Z,97531.09
2022-08-23T12:08:46.592Z,97535.41
2022-08-23T12:11:13.676Z,97532.81
2022-08-23T12:13:48.012Z,97532.81
2022-08-23T12:16:16.430Z,97530.25
2022-08-23T12:18:47.552Z,97525.09
2022-08-23T12:21:19.380Z,97525.09
2022-08-23T12:23:57.352Z,97528.53
2022-08-23T12:26:59.090Z,97528.53
2022-08-23T12:29:37.297Z,97520.69
2022-08-23T12:32:27.182Z,97532.81
2022-08-23T12:35:13.511Z,97543.97
2022-08-23T12:38:07.500Z,97537.09
2022-08-23T12:40:43.505Z,97531.09
2022-08-23T12:43:22.305Z,97538.81
2022-08-23T12:45:57.756Z,97536.25
2022-08-23T12:48:27.029Z,97533.69
2022-08-23T12:51:11.553Z,97530.22
2022-08-23T12:53:44.512Z,97535.38
2022-08-23T12:56:17.425Z,97528.53
2022-08-23T12:58:58.518Z,97506.94
2022-08-23T13:01:29.863Z,97520.81
2022-08-23T13:04:02.744Z,97505.25
2022-08-23T13:06:33.414Z,97519.97
2022-08-23T13:09:16.716Z,97525.97
2022-08-23T13:11:43.412Z,97518.28
2022-08-23T13:14:42.304Z,97526.81
2022-08-23T13:17:14.662Z,97519.09
2022-08-23T13:19:41.342Z,97517.41
2022-08-23T13:22:22.829Z,97525.09
2022-08-23T13:25:28.070Z,97524.22
2022-08-23T13:27:53.507Z,97515.69
2022-08-23T13:30:23.104Z,97514.78
2022-08-23T13:32:51.159Z,97513.09
2022-08-23T13:35:23.675Z,97508.78
2022-08-23T13:37:50.649Z,97507.09
2022-08-23T13:40:22.849Z,97489.81
2022-08-23T13:42:53.163Z,97487.25
2022-08-23T13:45:24.653Z,97502.78
2022-08-23T13:47:55.125Z,97504.50
2022-08-23T13:50:40.022Z,97498.50
2022-08-23T13:53:23.670Z,97499.38
2022-08-23T13:55:54.946Z,97502.81
2022-08-23T13:58:27.589Z,97499.38
2022-08-23T14:00:55.762Z,97494.25
2022-08-23T14:03:23.500Z,97495.13
2022-08-23T14:05:50.079Z,97487.44
2022-08-23T14:08:16.656Z,97479.72
2022-08-23T14:10:43.235Z,97485.69
2022-08-23T14:13:11.237Z,97487.44
2022-08-23T14:18:24.980Z,97490.00
2022-08-23T14:20:52.107Z,97490.84
2022-08-23T14:23:18.981Z,97487.44
2022-08-23T14:25:45.782Z,97461.56
2022-08-23T14:28:12.700Z,97482.28
2022-08-23T14:30:39.512Z,97476.25
2022-08-23T14:33:06.367Z,97480.53
2022-08-23T14:35:33.019Z,97478.84
2022-08-23T14:38:03.218Z,97473.69
2022-08-23T14:40:30.525Z,97478.84
2022-08-23T14:42:57.212Z,97468.53
2022-08-23T14:45:23.928Z,97469.41
2022-08-23T14:47:50.527Z,97468.53
2022-08-23T14:50:17.079Z,97474.53
2022-08-23T14:52:45.773Z,97475.38
2022-08-23T14:55:12.556Z,97480.53
2022-08-23T14:57:39.256Z,97474.56
2022-08-23T15:00:07.205Z,97477.13
2022-08-23T15:02:36.367Z,97484.84
2022-08-23T15:05:03.343Z,97480.53
2022-08-23T15:07:29.864Z,97477.97
2022-08-23T15:09:56.431Z,97476.25
2022-08-23T15:15:12.740Z,97475.38
2022-08-23T15:17:48.433Z,97483.09
2022-08-23T15:20:15.381Z,97482.25
2022-08-23T15:22:45.134Z,97482.25
2022-08-23T15:25:29.626Z,97470.19
2022-08-23T15:27:56.203Z,97479.69
2022-08-23T15:30:23.496Z,97478.81
2022-08-23T15:32:52.751Z,97391.59
2022-08-23T15:35:23.431Z,97462.44
2022-08-23T15:37:49.969Z,97469.38
2022-08-23T15:40:16.714Z,97470.22
2022-08-23T15:42:43.312Z,97471.06
2022-08-23T15:45:10.344Z,97474.53
2022-08-23T15:48:01.755Z,97471.09
2022-08-23T15:50:30.992Z,97480.50
2022-08-23T15:52:57.783Z,97475.38
2022-08-23T15:55:24.856Z,97473.63
2022-08-23T15:57:52.359Z,97481.38
2022-08-23T16:00:20.051Z,97480.53
2022-08-23T16:03:14.424Z,97478.81
2022-08-23T16:05:33.178Z,97480.50
2022-08-23T16:07:59.748Z,97477.09
2022-08-23T16:10:28.390Z,97485.66
2022-08-23T16:12:55.331Z,97490.78
2022-08-23T16:15:22.178Z,97483.94
2022-08-23T16:17:48.713Z,97472.72
2022-08-23T16:20:15.280Z,97476.25
2022-08-23T16:22:41.882Z,97477.13
2022-08-23T16:25:08.886Z,97463.31
2022-08-23T16:27:35.560Z,97475.38
2022-08-23T16:30:03.082Z,97474.53
2022-08-23T16:32:29.620Z,97477.09
2022-08-23T16:34:56.168Z,97474.47
2022-08-23T16:37:22.692Z,97471.94
2022-08-23T16:39:49.493Z,97481.41
2022-08-23T16:42:16.124Z,97465.00
2022-08-23T16:44:42.864Z,97476.19
2022-08-23T16:47:09.928Z,97357.84
2022-08-23T16:49:37.115Z,97478.91
2022-08-23T16:52:03.928Z,97485.75
2022-08-23T16:54:30.499Z,97483.16
2022-08-23T16:56:57.029Z,97491.81
2022-08-23T16:59:23.631Z,97481.50
2022-08-23T17:01:56.199Z,97485.81
2022-08-23T17:04:24.698Z,97490.94
2022-08-23T17:06:57.212Z,97490.94
2022-08-23T17:09:24.780Z,97486.63
2022-08-23T17:11:51.433Z,97485.72
2022-08-23T17:14:17.972Z,97486.63
2022-08-23T17:16:44.651Z,97491.81
2022-08-23T17:19:12.008Z,97497.81
2022-08-23T17:21:38.613Z,97496.09
2022-08-23T17:24:05.322Z,97496.09
2022-08-23T17:26:31.899Z,97508.13
2022-08-23T17:28:58.480Z,97503.81
2022-08-23T17:31:25.560Z,97504.63
2022-08-23T17:33:52.163Z,97503.78
2022-08-23T17:36:29.573Z,97510.69
2022-08-23T17:38:57.208Z,97502.09
2022-08-23T17:41:24.881Z,97508.13
2022-08-23T17:43:51.491Z,97501.13
2022-08-23T17:46:18.938Z,97514.06
2022-08-23T17:48:45.572Z,97517.53
2022-08-23T17:51:12.171Z,97521.78
2022-08-23T17:53:38.715Z,97523.53
2022-08-23T17:56:05.839Z,97523.47
2022-08-23T17:58:36.807Z,97536.38
2022-08-23T18:01:04.768Z,97534.66
2022-08-23T18:03:31.774Z,97532.06
2022-08-23T18:05:58.624Z,97538.97
2022-08-23T18:08:25.215Z,97530.28
2022-08-23T18:10:51.774Z,97541.53
2022-08-23T18:13:18.299Z,97546.66
2022-08-23T18:15:45.283Z,97540.59
2022-08-23T18:18:11.815Z,97548.38
2022-08-23T18:20:38.388Z,97544.09
2022-08-23T18:23:04.968Z,97545.78
2022-08-23T18:25:31.614Z,97544.81
2022-08-23T18:28:08.167Z,97561.22
2022-08-23T18:30:35.360Z,97564.63
2022-08-23T18:33:02.123Z,97567.22
2022-08-23T18:35:32.597Z,97562.91
2022-08-23T18:37:59.174Z,97577.53
2022-08-23T18:40:27.288Z,97562.84
2022-08-23T18:42:53.898Z,97574.94
2022-08-23T18:45:20.822Z,97575.78
2022-08-23T18:47:48.579Z,97575.78
2022-08-23T18:50:16.026Z,97585.25
2022-08-23T18:52:42.636Z,97583.47
2022-08-23T18:55:09.586Z,97592.88
2022-08-23T18:57:36.143Z,97587.69
2022-08-23T19:00:04.402Z,97594.59
2022-08-23T19:02:31.069Z,97598.09
2022-08-23T19:04:57.735Z,97599.81
2022-08-23T19:07:24.295Z,97603.22
2022-08-23T19:09:50.824Z,97616.09
2022-08-23T19:12:17.554Z,97621.25
2022-08-23T19:14:44.152Z,97620.38
2022-08-23T19:17:10.752Z,97622.94
2022-08-23T19:19:37.307Z,97626.31
2022-08-23T19:22:04.415Z,97627.22
2022-08-23T19:24:30.995Z,97638.38
2022-08-23T19:26:57.588Z,97636.66
2022-08-23T19:29:24.111Z,97646.94
2022-08-23T19:31:50.740Z,97646.97
2022-08-23T19:34:18.327Z,97644.41
2022-08-23T19:36:50.330Z,97652.13
2022-08-23T19:39:24.583Z,97642.63
2022-08-23T19:41:51.152Z,97651.22
2022-08-23T19:44:17.994Z,97657.28
2022-08-23T19:46:44.764Z,97652.91
2022-08-23T19:49:11.964Z,97665.00
2022-08-23T19:51:38.777Z,97659.75
2022-08-23T19:54:10.903Z,97659.81
2022-08-23T19:56:38.984Z,97670.13
2022-08-23T19:59:06.399Z,97660.63
2022-08-23T20:01:32.995Z,97678.66
2022-08-23T20:03:59.567Z,97677.81
2022-08-23T20:06:26.784Z,97684.66
2022-08-23T20:08:53.390Z,97676.06
2022-08-23T20:11:20.375Z,97685.53
2022-08-23T20:13:48.199Z,97681.19
2022-08-23T20:16:15.081Z,97681.22
2022-08-23T20:18:42.340Z,97678.66
2022-08-23T20:21:08.904Z,97685.53
2022-08-23T20:23:53.987Z,97679.47
2022-08-23T20:26:20.543Z,97688.94
2022-08-23T20:28:59.414Z,97689.78
2022-08-23T20:31:29.344Z,97693.25
2022-08-23T20:33:56.294Z,97694.94
2022-08-23T20:36:22.923Z,97698.38
2022-08-23T20:38:49.513Z,97688.94
2022-08-23T20:41:16.923Z,97687.22
2022-08-23T20:43:43.944Z,97687.22
2022-08-23T20:46:10.557Z,97694.06
2022-08-23T20:48:37.171Z,97692.34
2022-08-23T20:51:05.762Z,97688.91
2022-08-23T20:53:33.077Z,97687.09
2022-08-23T20:55:59.653Z,97689.78
2022-08-23T20:58:26.344Z,97684.63
2022-08-23T21:00:53.021Z,97685.50
2022-08-23T21:03:19.608Z,97694.94
2022-08-23T21:05:46.156Z,97691.47
2022-08-23T21:08:15.272Z,97694.06
2022-08-23T21:10:44.898Z,97689.72
2022-08-23T21:13:11.982Z,97693.22
2022-08-23T21:15:38.551Z,97694.91
2022-08-23T21:18:05.107Z,97707.78
2022-08-23T21:20:31.696Z,97709.50
2022-08-23T21:22:58.339Z,97696.56
2022-08-23T21:25:24.916Z,97694.91
2022-08-23T21:27:51.441Z,97694.91
2022-08-23T21:30:17.992Z,97700.06
2022-08-23T21:32:44.545Z,97700.06
2022-08-23T21:35:11.456Z,97703.50
2022-08-23T21:37:38.176Z,97699.16
2022-08-23T21:40:05.365Z,97697.44
2022-08-23T21:42:32.000Z,97705.19
2022-08-23T21:44:58.599Z,97703.50
2022-08-23T21:47:26.060Z,97706.88
2022-08-23T21:49:53.293Z,97705.19
2022-08-23T21:52:19.926Z,97699.16
2022-08-23T21:54:46.512Z,97705.16
2022-08-23T21:57:13.046Z,97703.47
2022-08-23T21:59:39.634Z,97703.47
2022-08-23T22:02:06.184Z,97704.28
2022-08-23T22:04:32.764Z,97704.31
2022-08-23T22:07:00.137Z,97697.44
2022-08-23T22:09:31.327Z,97706.88
2022-08-23T22:11:58.713Z,97709.44
2022-08-23T22:14:25.561Z,97697.31
2022-08-23T22:16:58.172Z,97707.75
2022-08-23T22:19:24.718Z,97709.44
2022-08-23T22:21:54.280Z,97697.34
2022-08-23T22:24:25.565Z,97714.56
2022-08-23T22:26:52.807Z,97713.75
2022-08-23T22:29:19.405Z,97703.38
2022-08-23T22:31:47.791Z,97709.44
2022-08-23T22:34:14.351Z,97709.41
2022-08-23T22:36:41.867Z,97710.28
2022-08-23T22:39:08.433Z,97707.72
2022-08-23T22:41:35.012Z,97704.25
2022-08-23T22:44:02.741Z,97711.16
2022-08-23T22:46:30.341Z,97706.03
2022-08-23T22:48:57.001Z,97712.00
2022-08-23T22:51:25.553Z,97715.44
2022-08-23T22:53:53.739Z,97705.06
2022-08-23T22:56:33.274Z,97714.56
2022-08-23T22:58:59.861Z,97709.38
2022-08-23T23:02:04.181Z,97711.13
2022-08-23T23:04:31.140Z,97713.72
2022-08-23T23:06:58.025Z,97708.53
2022-08-23T23:09:24.762Z,97710.28
2022-08-23T23:11:51.914Z,97717.13
2022-08-23T23:14:18.890Z,97707.72
2022-08-23T23:16:45.640Z,97708.59
2022-08-23T23:19:30.877Z,97699.13
2022-08-23T23:21:57.665Z,97700.00
2022-08-23T23:24:26.549Z,97703.38
2022-08-23T23:26:53.148Z,97704.25
2022-08-23T23:29:19.765Z,97698.28
2022-08-23T23:31:46.300Z,97699.13
2022-08-23T23:34:12.886Z,97696.53
2022-08-23T23:36:39.520Z,97692.25
2022-08-23T23:39:06.810Z,97696.53
2022-08-23T23:41:33.354Z,97697.41
2022-08-23T23:44:00.098Z,97693.13
2022-08-23T23:46:26.938Z,97674.91
2022-08-23T23:48:53.561Z,97685.41
2022-08-23T23:51:24.930Z,97692.25
2022-08-23T23:53:52.406Z,97691.41
2022-08-23T23:56:19.342Z,97694.81
2022-08-23T23:58:46.330Z,97696.53
